Capitol Logistics 523




PHNL
Daniel K Inouye International Airport
Honolulu, Hawaii
YSSY
Kingsford Smith International Airport
Sydney,

Activity Log

Date Flight Route Aircraft Duration
04/01/2019 CPX82 OPIHI2 CARRP BARKR B580 BOILS B580 MISLY ABARB RIKNI N774 TESAT B744 9h 47m

Route Details

Aircraft Information
Group: Trans-Pacific Ops
Types: B744,B763,MD11
Route Data
Demand: V
Distance: 4417nm
Duration: 10h 15m
Recm'd Route: OPIHI3 CARRP BARKR B580 MISLY ABARB RIKNI N774 MARLN MARLN5
Origin Wx: PHNL 272153Z 07009G14KT 10SM FEW025 SCT060 28/15 A3002 RMK AO2 SLP166 T02830150
Dest. Wx: YSSY 272130Z 31008KT 9999 FEW020 SCT080 BKN110 14/12 Q1012
Notes:

Financial History
Total Freight: 159,293lbs
Average Load: 159,293lbs/flt
Fuel Used: 220,844lbs
Avg. Fuel Used: 220,844lbs/flt
Fuel Expense: $152,382
Avg. Fuel Expense: $152,382
Avg. Fuel Cost: $0.69/lbs
Total Gross Income: $527,260
Pilot Pay: $229
Total Expenses: $56,996
Total Revenue: $315,544
Average Revenue: $527,260.00